Time;durP1;ratioP1;P1;durP2;ratioP2;P2;SDS_P1;SDS_P2;PMS_P1;PMS_P2;Temp;Humidity;BMP_temperature;BMP_pressure;BME280_temperature;BME280_humidity;BME280_pressure;Samples;Min_cycle;Max_cycle;Signal;HPM_P1;HPM_P2
2023/06/09 00:01:58;;;;;;;2.53;2.30;;;12.90;99.90;;;;;;5055239;28;20409;-70
2023/06/09 00:04:25;;;;;;;2.47;1.47;;;12.60;99.90;;;;;;5055058;28;20174;-73
2023/06/09 00:06:54;;;;;;;1.43;1.33;;;12.70;99.90;;;;;;5054789;28;20418;-73
2023/06/09 00:09:20;;;;;;;2.23;2.13;;;12.80;99.90;;;;;;5055132;28;20411;-71
2023/06/09 00:11:49;;;;;;;1.83;1.57;;;12.90;99.90;;;;;;5055010;28;20411;-72
2023/06/09 00:14:15;;;;;;;2.20;2.00;;;12.70;99.90;;;;;;5054856;28;20443;-71
2023/06/09 00:16:45;;;;;;;1.90;1.80;;;12.70;99.90;;;;;;5054582;28;20420;-69
2023/06/09 00:19:11;;;;;;;2.10;2.00;;;12.70;99.90;;;;;;5054839;28;20413;-71
2023/06/09 00:21:37;;;;;;;1.13;1.13;;;12.60;99.90;;;;;;5054766;28;20533;-73
2023/06/09 00:24:04;;;;;;;1.30;1.20;;;12.60;99.90;;;;;;5054700;28;20443;-73
2023/06/09 00:26:30;;;;;;;2.63;2.43;;;12.70;99.90;;;;;;5054354;28;20194;-73
2023/06/09 00:28:56;;;;;;;2.03;1.60;;;12.70;99.90;;;;;;5054685;28;20759;-73
2023/06/09 00:31:22;;;;;;;1.97;1.80;;;12.80;99.90;;;;;;5054437;28;20419;-71
2023/06/09 00:33:47;;;;;;;1.93;1.83;;;12.80;99.90;;;;;;5054664;28;20959;-70
2023/06/09 00:36:14;;;;;;;1.53;1.43;;;12.90;99.90;;;;;;5054168;28;20203;-71
2023/06/09 00:38:40;;;;;;;1.53;1.43;;;12.90;99.90;;;;;;5054603;28;20188;-72
2023/06/09 00:41:05;;;;;;;2.87;1.80;;;12.70;99.90;;;;;;5054374;28;20876;-71
2023/06/09 00:43:31;;;;;;;4.20;2.50;;;12.60;99.90;;;;;;5054381;28;20492;-70
2023/06/09 00:46:03;;;;;;;5.07;3.23;;;12.60;99.90;;;;;;5053921;28;20186;-71
2023/06/09 00:48:29;;;;;;;2.17;2.07;;;12.60;99.90;;;;;;5054527;28;20184;-71
2023/06/09 00:50:55;;;;;;;1.17;1.07;;;12.60;99.90;;;;;;5054188;28;20470;-70
2023/06/09 00:53:23;;;;;;;1.73;0.73;;;12.60;99.90;;;;;;5054444;28;20204;-72
2023/06/09 00:55:49;;;;;;;1.53;1.27;;;12.50;99.90;;;;;;5053963;28;20447;-73
2023/06/09 00:58:16;;;;;;;1.77;1.70;;;12.50;99.90;;;;;;5054149;28;20417;-70
2023/06/09 01:00:41;;;;;;;2.47;2.27;;;12.60;99.90;;;;;;5053771;28;20857;-71
2023/06/09 01:03:10;;;;;;;1.43;1.13;;;12.70;99.90;;;;;;5053950;28;20422;-72
2023/06/09 01:05:38;;;;;;;2.50;2.20;;;12.60;99.90;;;;;;5053735;28;20673;-73
2023/06/09 01:08:25;;;;;;;2.10;2.00;;;12.50;99.90;;;;;;5053936;28;20400;-71
2023/06/09 01:10:57;;;;;;;2.70;2.50;;;12.50;99.90;;;;;;5053973;28;20409;-70
2023/06/09 01:13:48;;;;;;;2.60;2.40;;;12.40;99.90;;;;;;5053963;28;20885;-71
2023/06/09 01:16:39;;;;;;;1.27;1.17;;;12.50;99.90;;;;;;5053516;28;20441;-74
2023/06/09 01:19:11;;;;;;;2.20;1.57;;;12.60;99.90;;;;;;5053804;28;20435;-72
2023/06/09 01:21:44;;;;;;;1.50;1.40;;;12.70;99.90;;;;;;5053478;28;20401;-69
2023/06/09 01:24:33;;;;;;;1.77;1.67;;;12.60;99.90;;;;;;5053583;28;20478;-72
2023/06/09 01:27:01;;;;;;;1.97;1.87;;;12.60;99.90;;;;;;5053616;28;20879;-73
2023/06/09 01:29:32;;;;;;;1.20;1.13;;;12.60;99.90;;;;;;5053439;28;20404;-73
2023/06/09 01:32:00;;;;;;;2.13;2.00;;;12.50;99.90;;;;;;5053612;28;21028;-72
2023/06/09 01:34:25;;;;;;;2.10;2.00;;;12.60;99.90;;;;;;5053569;28;20495;-73
2023/06/09 01:36:52;;;;;;;1.33;1.23;;;12.60;99.90;;;;;;5053265;28;20949;-71
2023/06/09 01:39:18;;;;;;;2.27;1.73;;;12.60;99.90;;;;;;5053373;28;20177;-73
2023/06/09 01:41:44;;;;;;;2.40;2.30;;;12.70;99.90;;;;;;5053555;28;20482;-73
2023/06/09 01:44:10;;;;;;;2.47;1.57;;;12.70;99.90;;;;;;5053347;28;20913;-70
2023/06/09 01:46:36;;;;;;;1.00;1.00;;;12.60;99.90;;;;;;5053224;28;20188;-72
2023/06/09 01:49:24;;;;;;;1.50;1.40;;;12.60;99.90;;;;;;5053310;28;20417;-72
2023/06/09 01:52:05;;;;;;;1.40;1.30;;;12.60;99.90;;;;;;5053400;28;20412;-72
2023/06/09 01:54:54;;;;;;;1.90;1.80;;;12.50;99.90;;;;;;5053309;28;20428;-71
2023/06/09 01:57:47;;;;;;;2.77;2.57;;;12.50;99.90;;;;;;5053073;28;20415;-71
2023/06/09 02:00:13;;;;;;;1.90;1.80;;;12.40;99.90;;;;;;5052781;28;20463;-72
2023/06/09 02:02:41;;;;;;;2.47;2.27;;;12.40;99.90;;;;;;5053265;28;20483;-72
2023/06/09 02:05:08;;;;;;;2.70;2.47;;;12.40;99.90;;;;;;5052987;28;20420;-72
2023/06/09 02:07:34;;;;;;;2.50;2.40;;;12.40;99.90;;;;;;5052873;28;20401;-71
2023/06/09 02:10:01;;;;;;;0.90;0.90;;;12.40;99.90;;;;;;5053058;28;20409;-73
2023/06/09 02:12:33;;;;;;;4.67;1.97;;;12.40;99.90;;;;;;5053102;28;20409;-72
2023/06/09 02:15:00;;;;;;;2.60;0.93;;;12.30;99.90;;;;;;5053093;28;20499;-71
2023/06/09 02:17:27;;;;;;;1.87;1.77;;;12.30;99.90;;;;;;5053000;28;20460;-71
2023/06/09 02:19:53;;;;;;;3.60;2.70;;;12.20;99.90;;;;;;5053095;28;20464;-71
2023/06/09 02:22:19;;;;;;;2.17;1.97;;;12.20;99.90;;;;;;5052880;28;20405;-71
2023/06/09 02:24:45;;;;;;;2.60;2.50;;;12.30;99.90;;;;;;5052880;28;20909;-72
2023/06/09 02:27:10;;;;;;;1.93;1.83;;;12.40;99.90;;;;;;5052933;28;20634;-72
2023/06/09 02:29:36;;;;;;;2.93;2.83;;;12.40;99.90;;;;;;5052873;28;20182;-71
2023/06/09 02:32:02;;;;;;;1.77;1.67;;;12.30;99.90;;;;;;5053053;28;20178;-70
2023/06/09 02:34:30;;;;;;;1.00;1.00;;;12.20;99.90;;;;;;5053603;28;20289;-73
2023/06/09 02:36:58;;;;;;;1.53;1.37;;;12.30;99.90;;;;;;5056558;28;20469;-71
2023/06/09 02:39:24;;;;;;;2.23;2.13;;;12.30;99.90;;;;;;5056822;28;20456;-73
2023/06/09 02:41:49;;;;;;;2.00;1.90;;;12.20;99.90;;;;;;5056780;28;20404;-71
2023/06/09 02:44:15;;;;;;;1.60;1.50;;;12.30;99.90;;;;;;5056507;28;20900;-71
2023/06/09 02:46:42;;;;;;;1.40;1.30;;;12.10;99.90;;;;;;5056341;28;20175;-71
2023/06/09 02:49:08;;;;;;;1.77;1.67;;;12.10;99.90;;;;;;5056325;28;20459;-71
2023/06/09 02:51:35;;;;;;;0.90;0.90;;;12.20;99.90;;;;;;5056395;28;20827;-73
2023/06/09 02:54:01;;;;;;;2.17;1.83;;;12.20;99.90;;;;;;5056440;28;20406;-71
2023/06/09 02:56:26;;;;;;;2.03;1.83;;;12.20;99.90;;;;;;5056184;28;20436;-69
2023/06/09 02:58:53;;;;;;;1.83;1.73;;;12.10;99.90;;;;;;5056338;28;20410;-72
2023/06/09 03:01:20;;;;;;;5.03;2.70;;;12.10;99.90;;;;;;5056308;28;20200;-72
2023/06/09 03:03:46;;;;;;;2.37;2.27;;;12.20;99.90;;;;;;5056218;28;20408;-71
2023/06/09 03:06:15;;;;;;;1.73;1.33;;;12.20;99.90;;;;;;5055969;28;20518;-72
2023/06/09 03:08:41;;;;;;;2.57;2.37;;;12.30;99.90;;;;;;5056160;28;20400;-72
2023/06/09 03:11:07;;;;;;;1.50;1.40;;;12.30;99.90;;;;;;5056293;28;20848;-71
2023/06/09 03:13:33;;;;;;;1.67;1.57;;;12.30;99.90;;;;;;5056199;28;20178;-71
2023/06/09 03:15:59;;;;;;;1.53;1.27;;;12.20;99.90;;;;;;5055715;28;20188;-72
2023/06/09 03:18:26;;;;;;;1.93;1.83;;;12.10;99.90;;;;;;5055950;28;20904;-71
2023/06/09 03:20:52;;;;;;;2.93;2.50;;;12.10;99.90;;;;;;5055834;28;20213;-73
2023/06/09 03:23:20;;;;;;;2.50;1.60;;;12.20;99.90;;;;;;5056221;28;20881;-72
2023/06/09 03:25:46;;;;;;;1.27;1.27;;;12.30;99.90;;;;;;5055669;28;20513;-70
2023/06/09 03:28:12;;;;;;;2.63;2.50;;;12.20;99.90;;;;;;5055918;28;20897;-71
2023/06/09 03:30:38;;;;;;;4.07;2.93;;;12.10;99.90;;;;;;5055701;28;20416;-71
2023/06/09 03:33:04;;;;;;;2.13;1.80;;;12.10;99.90;;;;;;5055687;28;20885;-71
2023/06/09 03:35:29;;;;;;;1.87;1.77;;;12.00;99.90;;;;;;5055576;28;20189;-72
2023/06/09 03:37:55;;;;;;;1.57;1.47;;;12.00;99.90;;;;;;5055901;28;20259;-71
2023/06/09 03:40:20;;;;;;;3.20;1.83;;;12.20;99.90;;;;;;5055647;28;20215;-72
2023/06/09 03:42:46;;;;;;;1.67;1.57;;;;;;;;;;5055442;28;20218;-72
2023/06/09 03:45:12;;;;;;;1.27;1.17;;;12.30;99.90;;;;;;5054933;28;20188;-70
2023/06/09 03:47:38;;;;;;;4.97;3.67;;;12.20;99.90;;;;;;5055189;28;20409;-71
2023/06/09 03:50:03;;;;;;;4.73;2.40;;;12.10;99.90;;;;;;5054629;28;20265;-70
2023/06/09 03:52:30;;;;;;;3.60;3.43;;;12.10;99.90;;;;;;5055259;28;20188;-72
2023/06/09 03:54:55;;;;;;;1.73;1.30;;;12.10;99.90;;;;;;5055151;28;20433;-70
2023/06/09 03:57:21;;;;;;;1.60;1.50;;;12.10;99.90;;;;;;5055001;28;20794;-71
2023/06/09 03:59:47;;;;;;;1.30;1.30;;;12.10;99.90;;;;;;5054999;28;20190;-73
2023/06/09 04:02:12;;;;;;;1.40;1.30;;;12.30;99.90;;;;;;5055133;28;20167;-73
2023/06/09 04:04:38;;;;;;;2.90;2.70;;;12.30;99.90;;;;;;5054855;28;20288;-71
2023/06/09 04:07:04;;;;;;;2.30;2.10;;;12.30;99.90;;;;;;5054611;28;20176;-71
2023/06/09 04:09:32;;;;;;;1.87;1.77;;;12.40;99.90;;;;;;5054890;28;20542;-73
2023/06/09 04:11:58;;;;;;;1.70;1.43;;;12.50;99.90;;;;;;5054910;28;20408;-70
2023/06/09 04:14:24;;;;;;;1.53;1.30;;;12.50;99.90;;;;;;5054895;28;20404;-71
2023/06/09 04:16:50;;;;;;;2.03;1.30;;;12.50;99.90;;;;;;5054471;28;20403;-73
2023/06/09 04:19:16;;;;;;;2.53;2.20;;;12.50;99.90;;;;;;5054613;28;20176;-73
2023/06/09 04:21:43;;;;;;;2.33;1.50;;;12.40;99.90;;;;;;5054803;28;20247;-73
2023/06/09 04:24:09;;;;;;;1.80;1.70;;;12.50;99.90;;;;;;5054344;28;20536;-72
2023/06/09 04:26:38;;;;;;;2.20;1.97;;;12.60;99.90;;;;;;5054185;28;20416;-71
2023/06/09 04:29:04;;;;;;;1.77;1.67;;;12.90;99.90;;;;;;5054732;28;20412;-72
2023/06/09 04:31:33;;;;;;;2.23;2.10;;;;;;;;;;5054821;28;20419;-73
2023/06/09 04:34:05;;;;;;;3.07;2.27;;;13.80;99.90;;;;;;5054650;28;20162;-72
2023/06/09 04:36:32;;;;;;;2.63;2.20;;;14.20;99.90;;;;;;5054171;28;20432;-71
2023/06/09 04:38:59;;;;;;;1.73;1.63;;;14.40;99.90;;;;;;5054414;28;20405;-70
2023/06/09 04:41:26;;;;;;;2.20;1.70;;;14.50;99.90;;;;;;5054301;28;20480;-71
2023/06/09 04:43:53;;;;;;;2.50;2.30;;;14.70;99.90;;;;;;5054367;28;20410;-72
2023/06/09 04:46:25;;;;;;;2.90;2.70;;;14.70;99.90;;;;;;5054040;28;20424;-73
2023/06/09 04:48:51;;;;;;;2.13;2.03;;;14.70;99.90;;;;;;5054234;28;20474;-70
2023/06/09 04:51:17;;;;;;;2.03;1.80;;;14.80;99.90;;;;;;5054549;28;20415;-73
2023/06/09 04:53:45;;;;;;;1.90;1.80;;;15.00;99.90;;;;;;5054352;28;20404;-72
2023/06/09 04:56:15;;;;;;;1.50;1.47;;;15.20;99.90;;;;;;5053858;28;20819;-73
2023/06/09 04:58:42;;;;;;;2.27;2.17;;;15.30;99.90;;;;;;5053541;28;20770;-70
2023/06/09 05:01:07;;;;;;;3.40;2.03;;;15.50;99.90;;;;;;5054493;28;20497;-72
2023/06/09 05:03:33;;;;;;;3.40;3.20;;;15.60;99.90;;;;;;5054090;28;20826;-71
2023/06/09 05:05:59;;;;;;;1.63;1.63;;;15.70;99.90;;;;;;5053683;28;20651;-71
2023/06/09 05:08:25;;;;;;;9.53;3.53;;;15.80;99.90;;;;;;5054098;28;20456;-71
2023/06/09 05:10:52;;;;;;;2.43;1.53;;;15.90;99.90;;;;;;5053919;28;20221;-72
2023/06/09 05:13:18;;;;;;;1.60;1.50;;;16.10;99.90;;;;;;5053780;28;20190;-72
2023/06/09 05:15:45;;;;;;;1.20;1.20;;;16.30;99.90;;;;;;5053681;28;20456;-71
2023/06/09 05:18:10;;;;;;;6.30;3.57;;;16.40;99.90;;;;;;5053869;28;20412;-71
2023/06/09 05:20:36;;;;;;;2.70;2.50;;;16.40;99.90;;;;;;5053622;28;20779;-71
2023/06/09 05:23:02;;;;;;;1.93;1.83;;;16.50;99.90;;;;;;5053660;28;20202;-73
2023/06/09 05:25:28;;;;;;;2.83;2.10;;;16.50;99.90;;;;;;5053508;28;20182;-74
2023/06/09 05:27:54;;;;;;;2.03;1.90;;;16.40;99.50;;;;;;5053623;28;20401;-72
2023/06/09 05:30:19;;;;;;;1.70;1.60;;;16.30;99.80;;;;;;5053727;28;20285;-71
2023/06/09 05:32:45;;;;;;;3.10;2.90;;;16.40;99.90;;;;;;5053630;28;20177;-71
2023/06/09 05:35:11;;;;;;;3.70;2.10;;;16.60;99.90;;;;;;5053526;28;20190;-73
2023/06/09 05:37:49;;;;;;;2.20;2.10;;;16.80;99.90;;;;;;5053335;28;20220;-72
2023/06/09 05:40:15;;;;;;;2.07;1.97;;;17.00;99.90;;;;;;5053690;28;20189;-74
2023/06/09 05:42:41;;;;;;;1.07;1.07;;;17.20;99.90;;;;;;5053524;28;20400;-72
2023/06/09 05:45:07;;;;;;;1.67;1.57;;;17.40;99.90;;;;;;5053386;28;20553;-73
2023/06/09 05:47:33;;;;;;;1.50;1.43;;;17.70;99.90;;;;;;5053156;28;20172;-73
2023/06/09 05:49:59;;;;;;;2.50;2.40;;;17.90;99.90;;;;;;5053210;28;20426;-73
2023/06/09 05:52:25;;;;;;;2.03;1.93;;;18.10;99.90;;;;;;5053479;28;20493;-71
2023/06/09 05:54:51;;;;;;;2.50;2.30;;;18.30;99.90;;;;;;5053320;28;20189;-73
2023/06/09 05:57:19;;;;;;;2.30;1.63;;;18.50;99.90;;;;;;5053243;28;20453;-71
2023/06/09 05:59:44;;;;;;;2.37;2.17;;;18.60;99.90;;;;;;5053239;28;20189;-73
2023/06/09 06:02:12;;;;;;;2.30;2.20;;;18.70;99.90;;;;;;5053051;28;20456;-73
2023/06/09 06:04:38;;;;;;;1.30;1.30;;;18.90;99.90;;;;;;5053034;28;20561;-71
2023/06/09 06:07:04;;;;;;;1.60;1.50;;;19.30;99.90;;;;;;5053115;28;20490;-74
2023/06/09 06:09:30;;;;;;;1.47;1.37;;;20.20;98.20;;;;;;5056001;28;20172;-72
2023/06/09 06:11:55;;;;;;;1.40;1.30;;;21.30;97.20;;;;;;5057352;28;20412;-74
2023/06/09 06:14:21;;;;;;;1.60;1.50;;;23.50;97.70;;;;;;5057328;28;20192;-70
2023/06/09 06:16:47;;;;;;;2.07;1.73;;;23.60;91.40;;;;;;5057149;28;20170;-73
2023/06/09 06:19:13;;;;;;;2.13;1.93;;;24.60;91.10;;;;;;5057217;28;20173;-73
2023/06/09 06:21:42;;;;;;;2.00;1.90;;;25.80;88.20;;;;;;5057125;28;20622;-72
2023/06/09 06:24:11;;;;;;;1.57;1.47;;;27.50;81.50;;;;;;5057101;28;20889;-73
2023/06/09 06:26:37;;;;;;;1.67;1.57;;;29.10;75.50;;;;;;5056864;28;20404;-73
2023/06/09 06:29:02;;;;;;;1.73;1.63;;;30.70;71.70;;;;;;5056870;28;20415;-73
2023/06/09 06:31:29;;;;;;;1.63;1.17;;;32.10;59.70;;;;;;5056870;28;20175;-74
2023/06/09 06:33:55;;;;;;;1.77;1.67;;;33.10;56.50;;;;;;5055560;28;20624;-73
2023/06/09 06:36:21;;;;;;;1.77;1.53;;;33.60;48.90;;;;;;5056337;28;20439;-72
2023/06/09 06:38:47;;;;;;;2.30;1.37;;;34.30;50.20;;;;;;5056968;28;20433;-74
2023/06/09 06:41:13;;;;;;;1.60;1.50;;;35.00;47.40;;;;;;5056785;28;20883;-73
2023/06/09 06:43:41;;;;;;;2.67;2.10;;;35.00;42.70;;;;;;5056580;28;20439;-73
2023/06/09 06:46:07;;;;;;;2.30;2.10;;;34.70;42.50;;;;;;5056364;28;20186;-75
2023/06/09 06:48:32;;;;;;;1.63;1.50;;;34.30;41.20;;;;;;5056415;28;20774;-75
2023/06/09 06:50:58;;;;;;;1.53;1.43;;;33.00;43.90;;;;;;5056714;28;20174;-75
2023/06/09 06:53:25;;;;;;;1.60;1.50;;;32.50;45.90;;;;;;5056610;28;20179;-75
2023/06/09 06:55:50;;;;;;;1.10;1.10;;;31.80;44.90;;;;;;5056188;28;20665;-73
2023/06/09 06:58:16;;;;;;;1.63;1.53;;;31.80;44.40;;;;;;5056321;28;20415;-73
2023/06/09 07:00:42;;;;;;;1.80;1.60;;;31.90;46.80;;;;;;5056265;28;20205;-74
2023/06/09 07:03:09;;;;;;;1.37;1.10;;;32.00;44.40;;;;;;5056298;28;20166;-72
2023/06/09 07:05:35;;;;;;;2.67;1.33;;;31.40;43.80;;;;;;5055922;28;20324;-72
2023/06/09 07:08:01;;;;;;;1.97;1.80;;;30.80;44.10;;;;;;5056467;28;20484;-74
2023/06/09 07:10:26;;;;;;;1.07;0.93;;;30.20;47.80;;;;;;5056276;28;20405;-74
2023/06/09 07:12:52;;;;;;;1.50;1.40;;;29.90;46.30;;;;;;5055973;28;20404;-74
2023/06/09 07:15:18;;;;;;;1.43;1.33;;;29.60;47.20;;;;;;5055954;28;20186;-73
2023/06/09 07:17:43;;;;;;;1.87;1.77;;;29.70;45.80;;;;;;5055897;28;20187;-71
2023/06/09 07:20:10;;;;;;;1.70;1.50;;;29.60;46.40;;;;;;5055344;28;20198;-72
2023/06/09 07:22:42;;;;;;;3.60;1.80;;;29.50;48.70;;;;;;5056079;28;20170;-75
2023/06/09 07:25:09;;;;;;;0.87;0.87;;;29.50;47.00;;;;;;5055910;28;21001;-72
2023/06/09 07:27:34;;;;;;;1.03;1.03;;;29.10;47.40;;;;;;5055599;28;20405;-75
2023/06/09 07:30:01;;;;;;;1.80;1.70;;;29.10;48.10;;;;;;5055742;28;20416;-74
2023/06/09 07:32:26;;;;;;;1.17;1.07;;;29.30;49.40;;;;;;5055728;28;20163;-72
2023/06/09 07:34:53;;;;;;;1.47;1.37;;;29.90;47.50;;;;;;5055569;28;20539;-73
2023/06/09 07:37:19;;;;;;;0.80;0.80;;;30.00;48.30;;;;;;5055410;28;20163;-72
2023/06/09 07:39:45;;;;;;;1.83;1.47;;;30.10;50.00;;;;;;5055425;28;20440;-73
2023/06/09 07:42:10;;;;;;;1.67;1.53;;;30.20;46.60;;;;;;5055408;28;20196;-75
2023/06/09 07:44:36;;;;;;;1.50;1.23;;;30.60;45.10;;;;;;5055350;28;20266;-72
2023/06/09 07:47:02;;;;;;;1.70;1.60;;;30.60;44.10;;;;;;5055310;28;20182;-74
2023/06/09 07:49:28;;;;;;;2.30;1.27;;;31.00;44.80;;;;;;5055201;28;20192;-72
2023/06/09 07:51:53;;;;;;;1.87;1.70;;;32.00;44.30;;;;;;5055499;28;20479;-71
2023/06/09 07:54:20;;;;;;;1.80;1.60;;;32.80;43.30;;;;;;5055359;28;20169;-74
2023/06/09 07:56:48;;;;;;;1.37;1.27;;;33.30;39.80;;;;;;5055112;28;20232;-73
2023/06/09 07:59:15;;;;;;;1.10;1.00;;;33.60;40.10;;;;;;5055183;28;20451;-75
2023/06/09 08:01:41;;;;;;;1.70;1.60;;;33.50;39.30;;;;;;5055226;28;20748;-73
2023/06/09 08:04:06;;;;;;;2.20;2.00;;;34.10;38.30;;;;;;5055546;28;20431;-73
2023/06/09 08:06:33;;;;;;;1.03;0.90;;;34.90;37.70;;;;;;5054816;28;20772;-73
2023/06/09 08:08:59;;;;;;;1.53;1.43;;;35.20;36.80;;;;;;5055215;28;20158;-75
2023/06/09 08:11:26;;;;;;;2.10;1.67;;;34.20;37.90;;;;;;5055010;28;20442;-73
2023/06/09 08:13:52;;;;;;;1.43;1.30;;;34.30;40.30;;;;;;5054886;28;20166;-72
2023/06/09 08:16:17;;;;;;;1.17;1.07;;;34.50;36.60;;;;;;5054745;28;20428;-74
2023/06/09 08:18:43;;;;;;;2.07;1.50;;;34.80;35.50;;;;;;5054890;28;20413;-71
2023/06/09 08:21:09;;;;;;;2.07;1.43;;;35.80;36.40;;;;;;5054990;28;20549;-75
2023/06/09 08:23:34;;;;;;;1.70;1.43;;;35.50;36.50;;;;;;5054909;28;20216;-74
2023/06/09 08:26:00;;;;;;;1.40;1.30;;;35.30;35.00;;;;;;5054418;28;20190;-75
2023/06/09 08:28:26;;;;;;;1.30;1.20;;;35.70;34.20;;;;;;5054702;28;20229;-74
2023/06/09 08:30:51;;;;;;;4.00;1.20;;;35.90;33.20;;;;;;5054933;28;20526;-75
2023/06/09 08:33:17;;;;;;;1.40;1.30;;;36.30;34.10;;;;;;5053637;28;20658;-73
2023/06/09 08:35:42;;;;;;;2.60;1.53;;;36.50;32.50;;;;;;5054204;28;20194;-75
2023/06/09 08:38:08;;;;;;;1.30;1.20;;;36.40;34.00;;;;;;5053258;28;20182;-74
2023/06/09 08:40:35;;;;;;;1.40;1.30;;;36.60;32.00;;;;;;5054269;28;20277;-73
2023/06/09 08:43:03;;;;;;;3.93;1.40;;;36.80;34.20;;;;;;5054537;28;20162;-75
2023/06/09 08:45:31;;;;;;;1.33;1.27;;;36.90;33.40;;;;;;5054046;28;20421;-74
2023/06/09 08:48:00;;;;;;;1.47;1.37;;;36.80;32.90;;;;;;5054440;28;20894;-72
2023/06/09 08:50:30;;;;;;;0.93;0.90;;;37.00;33.00;;;;;;5054264;28;20420;-74
2023/06/09 08:52:56;;;;;;;0.97;0.97;;;36.90;33.60;;;;;;5054078;28;20416;-75
2023/06/09 08:55:22;;;;;;;4.70;1.63;;;35.80;33.60;;;;;;5053863;28;20432;-72
2023/06/09 08:57:49;;;;;;;1.60;1.50;;;34.60;37.30;;;;;;5054094;28;20868;-75
2023/06/09 09:00:15;;;;;;;1.93;1.40;;;34.80;35.60;;;;;;5053823;28;20444;-74
2023/06/09 09:02:43;;;;;;;1.73;1.30;;;35.30;35.30;;;;;;5054121;28;20407;-75
2023/06/09 09:05:09;;;;;;;1.03;1.03;;;35.30;33.70;;;;;;5053768;28;20800;-73
2023/06/09 09:07:35;;;;;;;2.33;1.17;;;35.30;33.40;;;;;;5053718;28;20397;-73
2023/06/09 09:10:01;;;;;;;1.60;1.40;;;35.70;34.40;;;;;;5053874;28;20995;-75
2023/06/09 09:12:27;;;;;;;1.60;1.50;;;36.00;33.90;;;;;;5053799;28;20544;-75
2023/06/09 09:14:53;;;;;;;1.40;1.30;;;35.80;32.10;;;;;;5053795;28;20437;-73
2023/06/09 09:17:18;;;;;;;1.53;1.43;;;35.40;33.80;;;;;;5053746;28;20190;-75
2023/06/09 09:19:47;;;;;;;1.63;1.53;;;35.50;33.20;;;;;;5053695;28;20193;-75
2023/06/09 09:22:13;;;;;;;1.47;1.33;;;35.90;34.60;;;;;;5053566;28;20166;-74
2023/06/09 09:24:43;;;;;;;1.57;1.30;;;35.90;33.90;;;;;;5053557;28;20429;-74
2023/06/09 09:27:16;;;;;;;2.13;1.83;;;34.60;34.30;;;;;;5053385;28;20783;-73
2023/06/09 09:29:42;;;;;;;1.73;1.47;;;33.20;36.00;;;;;;5053539;28;20409;-75
2023/06/09 09:32:08;;;;;;;1.87;1.30;;;33.40;36.70;;;;;;5053565;28;20503;-73
2023/06/09 09:34:34;;;;;;;1.60;1.33;;;33.90;38.70;;;;;;5053461;28;20462;-72
2023/06/09 09:37:01;;;;;;;1.93;1.73;;;33.80;35.70;;;;;;5053212;28;20654;-76
2023/06/09 09:39:27;;;;;;;1.43;1.17;;;33.10;38.50;;;;;;5053322;28;20166;-72
2023/06/09 09:42:10;;;;;;;1.13;1.03;;;33.30;36.80;;;;;;5053411;28;20412;-74
2023/06/09 09:44:40;;;;;;;2.53;1.73;;;32.20;36.70;;;;;;5053073;28;20427;-74
2023/06/09 09:47:12;;;;;;;1.00;1.00;;;31.90;38.10;;;;;;5053177;28;20408;-74
2023/06/09 09:49:51;;;;;;;1.17;1.07;;;31.40;39.70;;;;;;5053155;28;20428;-74
2023/06/09 09:52:27;;;;;;;1.07;1.07;;;31.40;39.10;;;;;;5053474;28;20467;-73
2023/06/09 09:54:54;;;;;;;1.20;1.07;;;31.20;38.30;;;;;;5053268;28;20432;-74
2023/06/09 09:57:22;;;;;;;1.47;1.30;;;31.70;37.00;;;;;;5053043;28;20435;-75
2023/06/09 09:59:49;;;;;;;1.40;1.30;;;30.90;37.00;;;;;;5053077;28;20463;-73
2023/06/09 10:02:25;;;;;;;1.43;1.33;;;29.00;37.90;;;;;;5053347;28;20405;-75
2023/06/09 10:04:52;;;;;;;1.23;1.13;;;27.90;38.80;;;;;;5051995;28;20797;-74
2023/06/09 10:07:21;;;;;;;1.20;0.90;;;27.80;39.90;;;;;;5053038;28;20408;-72
2023/06/09 10:09:50;;;;;;;1.30;1.20;;;27.70;43.50;;;;;;5053234;28;20762;-72
2023/06/09 10:12:17;;;;;;;2.47;1.37;;;27.50;42.20;;;;;;5053066;28;20415;-72
2023/06/09 10:14:43;;;;;;;2.90;2.30;;;27.90;44.10;;;;;;5053163;28;20424;-74
2023/06/09 10:17:10;;;;;;;1.00;1.00;;;27.90;42.30;;;;;;5052931;28;20405;-71
2023/06/09 10:19:37;;;;;;;1.73;1.07;;;27.20;41.80;;;;;;5053001;28;20408;-72
2023/06/09 10:22:03;;;;;;;1.80;1.40;;;27.10;41.80;;;;;;5053166;28;20775;-73
2023/06/09 10:24:33;;;;;;;1.43;1.33;;;29.20;51.30;;;;;;5053071;28;20409;-74
2023/06/09 10:26:59;;;;;;;1.73;1.63;;;29.40;42.40;;;;;;5052756;28;20405;-74
2023/06/09 10:29:27;;;;;;;1.80;1.63;;;30.30;38.50;;;;;;5052887;28;20400;-72
2023/06/09 10:31:54;;;;;;;1.43;1.33;;;30.60;39.80;;;;;;5053132;28;20415;-75
2023/06/09 10:34:20;;;;;;;1.47;1.37;;;31.20;43.10;;;;;;5052762;28;20408;-73
2023/06/09 10:36:46;;;;;;;1.17;1.10;;;31.30;41.20;;;;;;5052626;28;20408;-73
2023/06/09 10:39:20;;;;;;;1.43;1.10;;;31.30;42.10;;;;;;5053059;28;20405;-72
2023/06/09 10:42:07;;;;;;;1.53;1.43;;;31.30;38.10;;;;;;5052927;28;20475;-73
2023/06/09 10:44:45;;;;;;;2.43;1.27;;;30.60;47.90;;;;;;5052834;28;20493;-72
2023/06/09 10:47:11;;;;;;;2.77;1.70;;;30.70;38.70;;;;;;5052575;28;20407;-72
2023/06/09 10:49:40;;;;;;;1.37;1.27;;;30.30;37.50;;;;;;5053161;28;20420;-74
2023/06/09 10:52:35;;;;;;;1.20;1.10;;;30.20;39.00;;;;;;5052762;28;20196;-73
2023/06/09 10:55:17;;;;;;;1.43;1.33;;;30.20;38.80;;;;;;5052537;28;20444;-73
2023/06/09 10:57:43;;;;;;;1.00;1.00;;;30.30;39.00;;;;;;5056391;28;20396;-72
2023/06/09 11:00:11;;;;;;;1.23;0.87;;;30.20;37.70;;;;;;5056259;28;20448;-75
2023/06/09 11:02:38;;;;;;;1.83;1.47;;;29.90;42.10;;;;;;5056533;28;20412;-74
2023/06/09 11:05:04;;;;;;;1.77;1.30;;;28.60;39.80;;;;;;5056195;28;20428;-73
2023/06/09 11:07:38;;;;;;;2.30;1.50;;;26.90;42.80;;;;;;5056158;28;20404;-74
2023/06/09 11:10:06;;;;;;;2.33;1.80;;;26.20;47.20;;;;;;5056292;28;20475;-72
2023/06/09 11:12:46;;;;;;;1.23;1.23;;;26.40;45.30;;;;;;5056085;28;20432;-75
2023/06/09 11:15:18;;;;;;;1.30;1.20;;;27.10;45.70;;;;;;5056247;28;20419;-71
2023/06/09 11:17:44;;;;;;;1.63;1.53;;;27.50;48.20;;;;;;5056017;28;20397;-71
2023/06/09 11:20:10;;;;;;;1.77;1.67;;;27.60;45.00;;;;;;5056036;28;20534;-75
2023/06/09 11:22:42;;;;;;;1.53;1.30;;;27.40;43.80;;;;;;5056044;28;20443;-73
2023/06/09 11:25:20;;;;;;;2.40;2.20;;;27.20;43.90;;;;;;5055828;28;20181;-75
2023/06/09 11:28:09;;;;;;;1.10;0.83;;;27.20;42.40;;;;;;5055934;28;20397;-72
2023/06/09 11:31:05;;;;;;;1.40;1.40;;;27.30;44.20;;;;;;5055862;28;20858;-74
2023/06/09 11:33:46;;;;;;;0.90;0.70;;;27.10;42.30;;;;;;5055944;28;20412;-74
2023/06/09 11:36:17;;;;;;;1.60;1.40;;;26.60;43.50;;;;;;5055333;28;20432;-74
2023/06/09 11:38:43;;;;;;;1.00;1.00;;;26.10;42.90;;;;;;5055756;28;20435;-73
2023/06/09 11:41:11;;;;;;;1.47;1.47;;;25.60;42.00;;;;;;5055657;28;20451;-73
2023/06/09 11:43:37;;;;;;;1.60;1.50;;;25.60;44.60;;;;;;5054390;28;20638;-72
2023/06/09 11:46:06;;;;;;;2.33;1.80;;;25.90;45.20;;;;;;5055328;28;20455;-72
2023/06/09 11:48:32;;;;;;;1.90;1.03;;;26.40;44.80;;;;;;5055333;28;20585;-74
2023/06/09 11:50:57;;;;;;;1.47;0.97;;;26.60;47.40;;;;;;5055546;28;20404;-72
2023/06/09 11:53:24;;;;;;;1.50;1.40;;;26.70;42.60;;;;;;5055682;28;20657;-71
2023/06/09 11:55:58;;;;;;;3.70;1.50;;;26.50;41.60;;;;;;5055219;28;20186;-74
2023/06/09 11:58:24;;;;;;;1.13;0.80;;;26.80;44.50;;;;;;5055242;28;20396;-75
2023/06/09 12:00:50;;;;;;;1.77;1.67;;;27.10;45.40;;;;;;5055196;28;20470;-73
2023/06/09 12:03:19;;;;;;;1.10;0.90;;;27.20;43.20;;;;;;5055385;28;20401;-74
2023/06/09 12:05:49;;;;;;;1.63;1.53;;;27.10;40.60;;;;;;5054710;28;20186;-74
2023/06/09 12:08:15;;;;;;;1.50;1.40;;;26.80;42.20;;;;;;5055192;28;20396;-74
2023/06/09 12:10:40;;;;;;;1.63;1.03;;;26.40;42.70;;;;;;5055223;28;20743;-72
2023/06/09 12:13:06;;;;;;;1.23;1.13;;;26.20;40.80;;;;;;5054962;28;20170;-73
2023/06/09 12:15:32;;;;;;;1.67;1.23;;;26.20;44.10;;;;;;5054714;28;20193;-72
2023/06/09 12:18:01;;;;;;;1.37;1.27;;;26.40;43.90;;;;;;5054982;28;20401;-75
2023/06/09 12:20:36;;;;;;;1.10;1.00;;;26.40;43.20;;;;;;5054872;28;20750;-72
2023/06/09 12:23:07;;;;;;;1.90;1.27;;;26.40;42.90;;;;;;5054871;28;20958;-74
2023/06/09 12:25:36;;;;;;;2.00;1.23;;;26.40;41.40;;;;;;5054733;28;20470;-73
2023/06/09 12:28:14;;;;;;;1.37;1.27;;;26.60;41.80;;;;;;5054903;28;20412;-74
2023/06/09 12:30:50;;;;;;;2.10;1.90;;;26.90;41.70;;;;;;5054724;28;20412;-73
2023/06/09 12:33:18;;;;;;;1.00;1.00;;;27.10;44.60;;;;;;5054711;28;20412;-74
2023/06/09 12:35:45;;;;;;;2.20;1.20;;;27.30;43.80;;;;;;5054331;28;20842;-73
2023/06/09 12:38:16;;;;;;;1.40;1.23;;;27.40;42.60;;;;;;5054535;28;20459;-73
2023/06/09 12:40:52;;;;;;;1.00;0.90;;;27.20;41.90;;;;;;5054715;28;20549;-73
2023/06/09 12:43:22;;;;;;;1.23;1.10;;;27.40;41.50;;;;;;5054552;28;20435;-73
2023/06/09 12:45:49;;;;;;;2.33;1.63;;;27.40;41.60;;;;;;5054181;28;20424;-73
2023/06/09 12:48:16;;;;;;;1.30;1.20;;;27.10;41.70;;;;;;5054291;28;20443;-72
2023/06/09 12:50:43;;;;;;;0.83;0.80;;;26.70;41.10;;;;;;5054287;28;20470;-71
2023/06/09 12:53:10;;;;;;;1.60;1.00;;;26.40;44.50;;;;;;5054288;28;20940;-74